Terminal Aerodrome Forecast
Issued by NWS

Home | Current Version | Previous Version | Text Only | Print | Product List | Glossary Off
Versions: 1 2 3 4 5 6 7 8 9 10 11 12 13 14 15

000
FTUS43 KMPX 251258 AAA
TAFRWF
TAF AMD
KRWF 251258Z 2513/2612 33009KT 6SM BR OVC005
     FM251600 35009KT P6SM -SHRA SCT008 OVC012
     FM251800 36008KT 6SM -SHRA OVC020
     FM252200 35009KT 2SM -RA BR OVC012
     FM260200 34012G22KT 2SM -RA BR OVC008=

USA.gov is the U.S. government's official web portal to all federal, state and local government web resources and services.